createdAt,value
2019-02-17T00:01:05.391Z,47.88
2019-02-17T00:03:34.226Z,48.08
2019-02-17T00:06:03.106Z,47.99
2019-02-17T00:08:31.971Z,48.53
2019-02-17T00:11:00.567Z,48.50
2019-02-17T00:13:29.155Z,48.42
2019-02-17T00:15:57.739Z,48.28
2019-02-17T00:18:26.332Z,48.39
2019-02-17T00:20:55.177Z,48.64
2019-02-17T00:23:23.848Z,48.98
2019-02-17T00:25:52.684Z,48.67
2019-02-17T00:28:21.294Z,48.76
2019-02-17T00:30:50.096Z,49.02
2019-02-17T00:33:18.744Z,48.79
2019-02-17T00:35:47.798Z,48.31
2019-02-17T00:38:16.376Z,48.60
2019-02-17T00:40:44.956Z,48.65
2019-02-17T00:43:13.552Z,48.77
2019-02-17T00:45:42.146Z,48.79
2019-02-17T00:48:10.707Z,48.71
2019-02-17T00:50:39.616Z,48.74
2019-02-17T00:53:08.182Z,49.31
2019-02-17T00:55:36.858Z,49.03
2019-02-17T00:58:05.440Z,48.56
2019-02-17T01:00:34.066Z,49.18
2019-02-17T01:03:02.655Z,48.96
2019-02-17T01:05:31.259Z,48.68
2019-02-17T01:08:00.098Z,48.96
2019-02-17T01:10:28.708Z,49.24
2019-02-17T01:12:57.533Z,49.16
2019-02-17T01:15:26.119Z,48.75
2019-02-17T01:17:54.949Z,50.49
2019-02-17T01:20:23.765Z,49.51
2019-02-17T01:22:52.593Z,49.94
2019-02-17T01:25:21.191Z,49.56
2019-02-17T01:27:49.759Z,49.58
2019-02-17T01:30:18.593Z,49.24
2019-02-17T01:32:47.243Z,49.60
2019-02-17T01:35:15.800Z,49.35
2019-02-17T01:37:44.398Z,48.88
2019-02-17T01:40:13.121Z,49.16
2019-02-17T01:42:41.794Z,49.96
2019-02-17T01:45:10.566Z,49.47
2019-02-17T01:47:39.175Z,49.44
2019-02-17T01:50:08.017Z,49.79
2019-02-17T01:52:36.857Z,49.54
2019-02-17T01:55:05.557Z,49.11
2019-02-17T01:57:34.430Z,49.45
2019-02-17T02:00:03.208Z,49.14
2019-02-17T02:02:32.050Z,49.01
2019-02-17T02:05:00.601Z,49.22
2019-02-17T02:07:29.467Z,48.85
2019-02-17T02:09:58.049Z,49.37
2019-02-17T02:12:26.883Z,49.88
2019-02-17T02:14:55.456Z,50.07
2019-02-17T02:17:24.073Z,49.74
2019-02-17T02:19:52.675Z,49.66
2019-02-17T02:22:21.586Z,50.38
2019-02-17T02:24:50.199Z,50.85
2019-02-17T02:27:18.770Z,50.20
2019-02-17T02:29:47.357Z,49.78
2019-02-17T02:32:16.265Z,49.85
2019-02-17T02:34:44.888Z,49.55
2019-02-17T02:37:13.592Z,49.83
2019-02-17T02:39:42.183Z,50.31
2019-02-17T02:42:11.026Z,50.87
2019-02-17T02:44:40.072Z,49.95
2019-02-17T02:47:08.770Z,49.67
2019-02-17T02:49:37.377Z,49.80
2019-02-17T02:52:05.984Z,49.52
2019-02-17T02:54:34.712Z,49.99
2019-02-17T02:57:03.611Z,50.97
2019-02-17T02:59:32.953Z,50.51
2019-02-17T03:02:01.543Z,49.23
2019-02-17T03:04:30.266Z,48.90
2019-02-17T03:07:01.368Z,48.65
2019-02-17T03:09:29.969Z,49.08
2019-02-17T03:11:58.642Z,49.16
2019-02-17T03:14:27.272Z,48.71
2019-02-17T03:16:55.890Z,49.20
2019-02-17T03:19:24.512Z,48.94
2019-02-17T03:21:53.129Z,48.79
2019-02-17T03:24:21.737Z,49.14
2019-02-17T03:26:50.558Z,49.41
2019-02-17T03:29:19.121Z,49.74
2019-02-17T03:31:47.952Z,49.50
2019-02-17T03:34:16.815Z,47.55
2019-02-17T03:36:45.674Z,48.60
2019-02-17T03:39:14.319Z,49.67
2019-02-17T03:41:42.925Z,49.13
2019-02-17T03:44:11.566Z,49.34
2019-02-17T03:46:40.832Z,48.93
2019-02-17T03:49:09.850Z,49.00
2019-02-17T03:51:38.506Z,49.27
2019-02-17T03:54:07.090Z,48.65
2019-02-17T03:56:35.705Z,49.10
2019-02-17T03:59:04.487Z,49.15
2019-02-17T04:01:33.600Z,49.07
2019-02-17T04:04:02.430Z,49.36
2019-02-17T04:06:31.097Z,50.00
2019-02-17T04:09:00.109Z,50.00
2019-02-17T04:11:29.165Z,49.35
2019-02-17T04:13:57.796Z,50.08
2019-02-17T04:16:26.552Z,50.83
2019-02-17T04:18:55.524Z,50.97
2019-02-17T04:21:24.534Z,49.97
2019-02-17T04:23:53.136Z,50.95
2019-02-17T04:26:21.777Z,50.46
2019-02-17T04:28:50.651Z,50.58
2019-02-17T04:31:19.469Z,49.96
2019-02-17T04:33:48.453Z,50.03
2019-02-17T04:36:17.113Z,49.38
2019-02-17T04:38:45.820Z,49.65
2019-02-17T04:41:14.470Z,49.83
2019-02-17T04:43:43.323Z,50.43
2019-02-17T04:46:12.167Z,47.81
2019-02-17T04:48:40.780Z,48.55
2019-02-17T04:51:09.436Z,47.72
2019-02-17T04:53:38.023Z,47.44
2019-02-17T04:56:06.877Z,47.28
2019-02-17T04:58:35.722Z,47.10
2019-02-17T05:01:04.311Z,48.08
2019-02-17T05:03:33.118Z,47.40
2019-02-17T05:06:02.100Z,47.12
2019-02-17T05:08:30.801Z,48.29
2019-02-17T05:10:59.383Z,47.84
2019-02-17T05:13:27.949Z,47.65
2019-02-17T05:15:56.599Z,47.76
2019-02-17T05:18:25.201Z,47.09
2019-02-17T05:20:53.776Z,46.89
2019-02-17T05:23:22.386Z,47.03
2019-02-17T05:25:51.109Z,47.14
2019-02-17T05:28:19.788Z,47.14
2019-02-17T05:30:52.969Z,48.30
2019-02-17T05:33:19.202Z,49.45
2019-02-17T05:35:47.811Z,49.73
2019-02-17T05:38:16.429Z,49.77
2019-02-17T05:40:44.983Z,49.33
2019-02-17T05:43:13.589Z,49.34
2019-02-17T05:45:42.144Z,50.13
2019-02-17T05:48:10.728Z,50.44
2019-02-17T05:50:39.303Z,49.63
2019-02-17T05:53:07.892Z,49.54
2019-02-17T05:55:36.481Z,49.57
2019-02-17T05:58:05.060Z,49.39
2019-02-17T06:00:35.461Z,49.42
2019-02-17T06:03:04.063Z,49.16
2019-02-17T06:05:32.651Z,49.40
2019-02-17T06:08:01.224Z,49.11
2019-02-17T06:10:29.823Z,49.12
2019-02-17T06:12:58.420Z,48.96
2019-02-17T06:15:27.004Z,48.91
2019-02-17T06:17:55.602Z,49.14
2019-02-17T06:20:24.169Z,48.80
2019-02-17T06:22:52.766Z,48.35
2019-02-17T06:25:21.345Z,48.61
2019-02-17T06:27:50.036Z,48.38
2019-02-17T06:30:18.606Z,48.59
2019-02-17T06:32:47.420Z,49.37
2019-02-17T06:35:16.031Z,49.01
2019-02-17T06:37:44.627Z,47.99
2019-02-17T06:40:13.344Z,48.27
2019-02-17T06:42:41.918Z,48.31
2019-02-17T06:45:10.880Z,48.40
2019-02-17T06:47:39.467Z,47.65
2019-02-17T06:50:09.195Z,47.62
2019-02-17T06:52:37.766Z,47.47
2019-02-17T06:55:38.592Z,46.52
2019-02-17T06:58:07.425Z,46.04
2019-02-17T07:00:41.629Z,45.49
2019-02-17T07:03:10.221Z,45.16
2019-02-17T07:05:48.151Z,45.26
2019-02-17T07:08:16.785Z,44.53
2019-02-17T07:10:45.603Z,44.21
2019-02-17T07:13:14.282Z,44.11
2019-02-17T07:15:43.162Z,43.51
2019-02-17T07:18:11.775Z,43.26
2019-02-17T07:20:40.360Z,42.85
2019-02-17T07:23:08.950Z,42.79
2019-02-17T07:25:37.548Z,42.89
2019-02-17T07:28:06.379Z,43.08
2019-02-17T07:30:34.978Z,42.29
2019-02-17T07:33:03.632Z,42.39
2019-02-17T07:35:32.258Z,42.39
2019-02-17T07:38:00.876Z,41.28
2019-02-17T07:40:29.529Z,41.35
2019-02-17T07:42:58.151Z,40.84
2019-02-17T07:45:27.049Z,41.35
2019-02-17T07:47:55.771Z,40.29
2019-02-17T07:50:24.632Z,40.17
2019-02-17T07:52:53.314Z,40.85
2019-02-17T07:55:21.982Z,40.64
2019-02-17T07:57:50.593Z,40.86
2019-02-17T08:00:19.297Z,40.50
2019-02-17T08:02:49.572Z,40.64
2019-02-17T08:05:18.267Z,40.49
2019-02-17T08:07:47.112Z,40.50
2019-02-17T08:10:15.714Z,40.59
2019-02-17T08:12:44.311Z,41.01
2019-02-17T08:15:13.094Z,41.17
2019-02-17T08:17:41.797Z,40.56
2019-02-17T08:20:10.502Z,39.97
2019-02-17T08:22:39.303Z,40.36
2019-02-17T08:25:08.086Z,39.94
2019-02-17T08:27:36.696Z,38.96
2019-02-17T08:30:05.971Z,40.18
2019-02-17T08:32:34.697Z,39.13
2019-02-17T08:35:03.304Z,38.48
2019-02-17T08:37:32.053Z,38.64
2019-02-17T08:40:00.987Z,37.12
2019-02-17T08:42:29.739Z,36.59
2019-02-17T08:44:58.612Z,35.31
2019-02-17T08:47:27.257Z,35.31
2019-02-17T08:49:56.067Z,35.38
2019-02-17T08:52:24.746Z,33.65
2019-02-17T08:54:53.357Z,30.62
2019-02-17T08:57:22.313Z,28.11
2019-02-17T08:59:50.923Z,27.15
2019-02-17T09:02:19.569Z,27.63
2019-02-17T09:04:48.132Z,26.53
2019-02-17T09:07:16.996Z,23.87
2019-02-17T09:09:45.720Z,23.20
2019-02-17T09:12:14.783Z,23.50
2019-02-17T09:14:43.398Z,20.91
2019-02-17T09:17:12.022Z,21.72
2019-02-17T09:19:40.606Z,20.47
2019-02-17T09:22:09.296Z,18.83
2019-02-17T09:24:37.898Z,18.92
2019-02-17T09:27:06.808Z,20.06
2019-02-17T09:29:35.397Z,17.75
2019-02-17T09:32:04.491Z,17.68
2019-02-17T09:34:33.361Z,17.81
2019-02-17T09:37:01.964Z,17.22
2019-02-17T09:39:30.844Z,17.65
2019-02-17T09:41:59.466Z,17.69
2019-02-17T09:44:28.075Z,17.78
2019-02-17T09:46:56.638Z,18.24
2019-02-17T09:49:25.489Z,17.92
2019-02-17T09:51:54.203Z,18.36
2019-02-17T09:54:23.006Z,18.97
2019-02-17T09:56:51.626Z,18.32
2019-02-17T09:59:20.275Z,18.02
2019-02-17T10:01:49.092Z,17.99
2019-02-17T10:04:17.758Z,18.53
2019-02-17T10:06:46.530Z,19.84
2019-02-17T10:09:15.331Z,19.93
2019-02-17T10:11:43.915Z,20.96
2019-02-17T10:14:12.637Z,20.24
2019-02-17T10:16:41.360Z,19.00
2019-02-17T10:19:09.951Z,18.33
2019-02-17T10:21:38.560Z,19.08
2019-02-17T10:24:07.154Z,19.14
2019-02-17T10:26:36.040Z,18.13
2019-02-17T10:29:04.639Z,18.13
2019-02-17T10:31:33.283Z,17.96
2019-02-17T10:34:01.869Z,18.13
2019-02-17T10:36:33.368Z,18.08
2019-02-17T10:39:01.974Z,19.07
2019-02-17T10:41:30.588Z,19.22
2019-02-17T10:43:59.513Z,18.49
2019-02-17T10:46:28.108Z,17.69
2019-02-17T10:48:57.021Z,17.74
2019-02-17T10:51:26.542Z,17.78
2019-02-17T10:53:55.517Z,18.20
2019-02-17T10:56:24.111Z,18.82
2019-02-17T10:58:52.740Z,19.28
2019-02-17T11:01:21.375Z,20.03
2019-02-17T11:04:04.621Z,21.02
2019-02-17T11:06:33.291Z,20.66
2019-02-17T11:09:02.165Z,20.66
2019-02-17T11:11:30.845Z,21.66
2019-02-17T11:13:59.459Z,22.63
2019-02-17T11:16:28.094Z,23.00
2019-02-17T11:18:56.712Z,23.15
2019-02-17T11:21:25.274Z,23.16
2019-02-17T11:23:53.934Z,23.49
2019-02-17T11:26:22.517Z,23.34
2019-02-17T11:28:51.122Z,23.53
2019-02-17T11:31:19.715Z,24.17
2019-02-17T11:33:48.619Z,23.70
2019-02-17T11:36:17.229Z,23.68
2019-02-17T11:38:45.892Z,23.80
2019-02-17T11:41:14.542Z,23.33
2019-02-17T11:43:43.406Z,24.61
2019-02-17T11:46:12.030Z,24.23
2019-02-17T11:48:40.613Z,24.39
2019-02-17T11:51:10.312Z,24.79
2019-02-17T11:53:38.878Z,24.21
2019-02-17T11:56:09.061Z,23.75
2019-02-17T11:58:38.672Z,24.13
2019-02-17T12:01:07.305Z,23.89
2019-02-17T12:03:36.022Z,23.64
2019-02-17T12:06:04.712Z,23.17
2019-02-17T12:08:33.537Z,22.11
2019-02-17T12:11:02.132Z,20.10
2019-02-17T12:13:30.785Z,18.41
2019-02-17T12:15:59.484Z,17.13
2019-02-17T12:18:28.085Z,16.17
2019-02-17T12:21:33.730Z,15.39
2019-02-17T12:24:30.281Z,14.76
2019-02-17T12:27:15.719Z,14.39
2019-02-17T12:29:47.187Z,14.63
2019-02-17T12:32:16.476Z,13.43
2019-02-17T12:34:45.064Z,14.23
2019-02-17T12:37:13.760Z,14.32
2019-02-17T12:39:42.376Z,14.55
2019-02-17T12:42:11.246Z,14.00
2019-02-17T12:44:40.127Z,14.86
2019-02-17T12:47:08.749Z,15.22
2019-02-17T12:49:37.345Z,14.99
2019-02-17T12:52:05.923Z,16.12
2019-02-17T12:54:34.738Z,15.84
2019-02-17T12:57:04.070Z,15.83
2019-02-17T12:59:32.832Z,16.05
2019-02-17T13:02:01.442Z,15.98
2019-02-17T13:04:30.060Z,15.39
2019-02-17T13:06:58.731Z,15.62
2019-02-17T13:09:27.877Z,16.32
2019-02-17T13:11:56.490Z,17.16
2019-02-17T13:14:25.109Z,17.88
2019-02-17T13:16:53.707Z,17.25
2019-02-17T13:19:22.371Z,17.55
2019-02-17T13:21:51.023Z,17.93
2019-02-17T13:24:19.668Z,17.72
2019-02-17T13:26:48.275Z,17.10
2019-02-17T13:29:16.938Z,18.60
2019-02-17T13:31:45.596Z,19.36
2019-02-17T13:34:14.378Z,21.34
2019-02-17T13:36:43.094Z,23.85
2019-02-17T13:39:11.727Z,25.30
2019-02-17T13:41:40.333Z,25.36
2019-02-17T13:44:08.990Z,25.84
2019-02-17T13:46:37.645Z,26.88
2019-02-17T13:49:06.319Z,26.14
2019-02-17T13:51:35.143Z,26.38
2019-02-17T13:54:03.786Z,27.14
2019-02-17T13:56:32.659Z,27.75
2019-02-17T13:59:01.318Z,28.15
2019-02-17T14:01:30.462Z,27.43
2019-02-17T14:03:59.083Z,27.89
2019-02-17T14:06:27.702Z,27.84
2019-02-17T14:08:56.440Z,27.19
2019-02-17T14:11:25.125Z,27.13
2019-02-17T14:13:53.951Z,27.28
2019-02-17T14:16:22.736Z,26.00
2019-02-17T14:18:51.330Z,26.22
2019-02-17T14:21:20.016Z,27.07
2019-02-17T14:23:48.680Z,26.36
2019-02-17T14:26:17.270Z,27.67
2019-02-17T14:28:45.871Z,27.46
2019-02-17T14:31:14.462Z,28.43
2019-02-17T14:33:43.058Z,28.54
2019-02-17T14:36:11.846Z,27.52
2019-02-17T14:38:40.441Z,26.87
2019-02-17T14:41:09.087Z,27.64
2019-02-17T14:43:37.661Z,26.72
2019-02-17T14:46:06.283Z,26.88
2019-02-17T14:48:34.882Z,27.15
2019-02-17T14:51:03.768Z,27.37
2019-02-17T14:53:32.734Z,27.87
2019-02-17T14:56:01.479Z,29.07
2019-02-17T14:58:30.323Z,29.43
2019-02-17T15:00:59.178Z,29.23
2019-02-17T15:03:27.755Z,28.97
2019-02-17T15:05:56.434Z,29.62
2019-02-17T15:08:25.039Z,29.14
2019-02-17T15:10:53.759Z,30.64
2019-02-17T15:13:24.745Z,30.49
2019-02-17T15:15:52.791Z,29.27
2019-02-17T15:18:21.507Z,30.70
2019-02-17T15:20:50.197Z,30.70
2019-02-17T15:23:18.822Z,30.94
2019-02-17T15:25:47.510Z,32.34
2019-02-17T15:28:16.318Z,31.73
2019-02-17T15:30:45.334Z,30.59
2019-02-17T15:33:14.298Z,30.79
2019-02-17T15:35:42.893Z,30.25
2019-02-17T15:38:11.515Z,30.59
2019-02-17T15:40:40.200Z,29.76
2019-02-17T15:43:08.877Z,30.32
2019-02-17T15:45:37.725Z,30.47
2019-02-17T15:48:06.305Z,31.84
2019-02-17T15:50:34.909Z,31.45
2019-02-17T15:53:03.487Z,30.82
2019-02-17T15:55:32.086Z,31.63
2019-02-17T15:58:00.758Z,30.76
2019-02-17T16:00:29.342Z,31.75
2019-02-17T16:02:58.027Z,32.97
2019-02-17T16:05:26.714Z,31.66
2019-02-17T16:07:55.607Z,32.18
2019-02-17T16:10:24.216Z,32.02
2019-02-17T16:12:52.821Z,33.92
2019-02-17T16:15:22.057Z,34.54
2019-02-17T16:17:51.019Z,34.94
2019-02-17T16:20:19.739Z,35.35
2019-02-17T16:22:48.802Z,35.07
2019-02-17T16:25:17.433Z,36.24
2019-02-17T16:27:46.046Z,37.36
2019-02-17T16:30:15.168Z,36.25
2019-02-17T16:32:43.849Z,35.61
2019-02-17T16:35:12.518Z,36.40
2019-02-17T16:37:41.145Z,36.54
2019-02-17T16:40:11.363Z,36.71
2019-02-17T16:42:40.819Z,36.49
2019-02-17T16:45:10.908Z,35.81
2019-02-17T16:47:39.703Z,36.36
2019-02-17T16:50:10.686Z,37.79
2019-02-17T16:52:39.637Z,36.72
2019-02-17T16:55:09.663Z,37.07
2019-02-17T16:57:38.432Z,37.45
2019-02-17T17:00:08.565Z,38.20
2019-02-17T17:02:38.566Z,38.82
2019-02-17T17:05:08.072Z,38.15
2019-02-17T17:07:36.726Z,38.04
2019-02-17T17:10:06.392Z,37.35
2019-02-17T17:12:37.745Z,36.61
2019-02-17T17:15:06.685Z,37.78
2019-02-17T17:17:35.342Z,38.95
2019-02-17T17:20:04.034Z,37.79
2019-02-17T17:22:32.655Z,37.95
2019-02-17T17:25:01.248Z,37.99
2019-02-17T17:27:29.860Z,37.44
2019-02-17T17:29:58.439Z,37.40
2019-02-17T17:32:27.126Z,37.40
2019-02-17T17:34:58.785Z,37.64
2019-02-17T17:37:26.425Z,37.86
2019-02-17T17:39:55.045Z,38.29
2019-02-17T17:42:23.702Z,39.10
2019-02-17T17:44:52.304Z,39.10
2019-02-17T17:47:21.165Z,40.00
2019-02-17T17:49:49.759Z,40.00
2019-02-17T17:52:19.063Z,41.64
2019-02-17T17:54:48.019Z,41.99
2019-02-17T17:57:17.229Z,41.99
2019-02-17T17:59:45.893Z,41.73
2019-02-17T18:02:14.741Z,42.44
2019-02-17T18:04:43.519Z,42.45
2019-02-17T18:07:12.182Z,42.12
2019-02-17T18:09:40.838Z,42.29
2019-02-17T18:12:09.448Z,41.61
2019-02-17T18:14:38.062Z,41.61
2019-02-17T18:17:06.700Z,41.02
2019-02-17T18:19:35.344Z,40.38
2019-02-17T18:22:07.592Z,40.78
2019-02-17T18:24:36.386Z,41.61
2019-02-17T18:27:05.029Z,39.38
2019-02-17T18:29:33.716Z,38.52
2019-02-17T18:32:02.284Z,37.41
2019-02-17T18:34:30.880Z,36.92
2019-02-17T18:37:00.551Z,36.92
2019-02-17T18:39:29.175Z,36.94
2019-02-17T18:41:57.715Z,36.94
2019-02-17T18:44:26.286Z,37.63
2019-02-17T18:46:55.110Z,38.86
2019-02-17T18:49:23.931Z,38.60
2019-02-17T18:51:52.554Z,37.50
2019-02-17T18:54:21.146Z,37.50
2019-02-17T18:56:49.742Z,37.57
2019-02-17T18:59:18.381Z,36.90
2019-02-17T19:01:47.115Z,36.90
2019-02-17T19:04:15.675Z,37.65
2019-02-17T19:06:44.504Z,37.65
2019-02-17T19:09:13.100Z,37.36
2019-02-17T19:11:41.933Z,36.34
2019-02-17T19:14:11.250Z,36.66
2019-02-17T19:16:43.303Z,35.82
2019-02-17T19:19:12.004Z,35.65
2019-02-17T19:21:43.979Z,35.40
2019-02-17T19:24:12.651Z,35.40
2019-02-17T19:26:41.228Z,34.66
2019-02-17T19:29:10.203Z,34.66
2019-02-17T19:31:38.861Z,34.82
2019-02-17T19:34:07.495Z,34.81
2019-02-17T19:36:36.055Z,34.81
2019-02-17T19:39:05.917Z,35.19
2019-02-17T19:41:34.487Z,34.23
2019-02-17T19:44:03.091Z,34.23
2019-02-17T19:46:32.017Z,34.66
2019-02-17T19:49:00.711Z,34.20
2019-02-17T19:51:29.321Z,35.35
2019-02-17T19:53:58.000Z,35.35
2019-02-17T19:56:26.824Z,34.48
2019-02-17T19:58:55.406Z,34.58
2019-02-17T20:01:24.217Z,35.02
2019-02-17T20:04:12.135Z,33.42
2019-02-17T20:06:40.661Z,33.42
2019-02-17T20:09:16.824Z,33.50
2019-02-17T20:11:45.397Z,35.41
2019-02-17T20:14:14.301Z,35.41
2019-02-17T20:16:42.910Z,35.77
2019-02-17T20:19:11.510Z,35.38
2019-02-17T20:21:40.103Z,35.92
2019-02-17T20:24:08.728Z,35.89
2019-02-17T20:26:37.365Z,35.89
2019-02-17T20:29:06.073Z,36.13
2019-02-17T20:31:34.638Z,35.70
2019-02-17T20:34:03.455Z,35.72
2019-02-17T20:36:32.059Z,37.69
2019-02-17T20:39:00.709Z,35.84
2019-02-17T20:41:29.912Z,35.84
2019-02-17T20:43:58.532Z,36.28
2019-02-17T20:46:27.130Z,36.43
2019-02-17T20:48:55.981Z,36.43
2019-02-17T20:51:24.580Z,37.06
2019-02-17T20:53:53.240Z,36.32
2019-02-17T20:56:21.960Z,36.32
2019-02-17T20:58:50.838Z,36.42
2019-02-17T21:01:19.673Z,35.35
2019-02-17T21:03:48.257Z,35.59
2019-02-17T21:06:16.929Z,35.59
2019-02-17T21:08:45.730Z,35.51
2019-02-17T21:11:14.776Z,35.84
2019-02-17T21:13:43.363Z,36.36
2019-02-17T21:16:12.272Z,36.79
2019-02-17T21:18:40.839Z,37.61
2019-02-17T21:21:09.772Z,38.43
2019-02-17T21:23:38.367Z,38.12
2019-02-17T21:26:07.128Z,38.27
2019-02-17T21:28:35.887Z,36.09
2019-02-17T21:31:04.844Z,36.62
2019-02-17T21:33:33.648Z,36.25
2019-02-17T21:36:02.360Z,35.59
2019-02-17T21:38:30.930Z,36.22
2019-02-17T21:41:08.997Z,35.76
2019-02-17T21:43:30.090Z,35.79
2019-02-17T21:45:59.009Z,35.43
2019-02-17T21:48:27.659Z,35.68
2019-02-17T21:50:56.536Z,35.83
2019-02-17T21:53:25.237Z,35.53
2019-02-17T21:55:53.973Z,35.95
2019-02-17T21:58:22.640Z,35.91
2019-02-17T22:00:51.251Z,34.85
2019-02-17T22:03:19.873Z,35.16
2019-02-17T22:05:48.525Z,34.70
2019-02-17T22:08:17.140Z,34.70
2019-02-17T22:10:45.907Z,34.51
2019-02-17T22:13:14.604Z,34.51
2019-02-17T22:15:43.647Z,35.14
2019-02-17T22:18:12.666Z,34.90
2019-02-17T22:20:41.280Z,35.12
2019-02-17T22:23:09.947Z,35.16
2019-02-17T22:25:38.648Z,34.80
2019-02-17T22:28:07.363Z,35.02
2019-02-17T22:30:36.037Z,34.37
2019-02-17T22:33:04.684Z,34.69
2019-02-17T22:35:33.291Z,34.40
2019-02-17T22:38:02.088Z,34.88
2019-02-17T22:40:30.738Z,34.64
2019-02-17T22:42:59.343Z,35.28
2019-02-17T22:45:27.910Z,34.56
2019-02-17T22:47:56.560Z,34.90
2019-02-17T22:50:25.207Z,34.87
2019-02-17T22:52:54.317Z,35.13
2019-02-17T22:55:22.950Z,35.23
2019-02-17T22:57:51.604Z,35.53
2019-02-17T23:00:32.684Z,36.32
2019-02-17T23:03:01.523Z,36.18
2019-02-17T23:05:30.222Z,36.42
2019-02-17T23:07:58.891Z,37.19
2019-02-17T23:10:27.449Z,37.05
2019-02-17T23:12:56.326Z,37.00
2019-02-17T23:15:24.886Z,37.44
2019-02-17T23:17:53.524Z,37.04
2019-02-17T23:20:22.186Z,36.82
2019-02-17T23:22:51.253Z,36.87
2019-02-17T23:25:20.100Z,36.92
2019-02-17T23:27:48.748Z,37.65
2019-02-17T23:30:17.419Z,37.83
2019-02-17T23:32:46.073Z,38.31
2019-02-17T23:35:14.894Z,38.26
2019-02-17T23:37:43.487Z,38.60
2019-02-17T23:40:12.246Z,38.73
2019-02-17T23:42:40.912Z,39.30
2019-02-17T23:45:09.716Z,39.72
2019-02-17T23:47:38.286Z,38.78
2019-02-17T23:50:07.130Z,38.83
2019-02-17T23:52:35.716Z,38.81
2019-02-17T23:55:04.547Z,39.52
2019-02-17T23:57:33.480Z,39.91
